Time;durP1;ratioP1;P1;durP2;ratioP2;P2;SDS_P1;SDS_P2;PMS_P1;PMS_P2;Temp;Humidity;BMP_temperature;BMP_pressure;BME280_temperature;BME280_humidity;BME280_pressure;Samples;Min_cycle;Max_cycle;Signal;HPM_P1;HPM_P2
2023/04/06 00:00:49;;;;;;;10.13;2.38;;;;;;;10.23;85.26;100637.31;5030058;28;20095;-45
2023/04/06 00:03:16;;;;;;;5.45;1.95;;;;;;;10.22;85.14;100628.19;5029666;28;20088;-48
2023/04/06 00:05:43;;;;;;;6.75;1.90;;;;;;;10.19;85.21;100628.09;5029783;28;20487;-46
2023/04/06 00:08:10;;;;;;;6.68;2.10;;;;;;;10.18;85.10;100623.72;5030156;28;20042;-46
2023/04/06 00:10:37;;;;;;;5.97;1.88;;;;;;;10.17;85.00;100611.81;5030227;28;20320;-45
2023/04/06 00:13:05;;;;;;;4.25;1.60;;;;;;;10.12;85.00;100620.34;5028675;28;20103;-49
2023/04/06 00:15:32;;;;;;;5.20;2.42;;;;;;;10.07;84.75;100617.78;5029396;28;20046;-46
2023/04/06 00:17:58;;;;;;;3.60;2.13;;;;;;;10.03;84.82;100616.88;5012071;28;20056;-45
2023/04/06 00:20:25;;;;;;;5.15;1.98;;;;;;;9.99;84.66;100615.94;5029908;28;20080;-45
2023/04/06 00:22:52;;;;;;;10.07;2.25;;;;;;;9.96;84.42;100613.84;5028813;28;20037;-45
2023/04/06 00:25:19;;;;;;;5.80;2.55;;;;;;;9.86;84.24;100606.00;5030063;28;20115;-46
2023/04/06 00:27:46;;;;;;;9.27;3.55;;;;;;;9.82;84.46;100610.63;5021484;28;20642;-51
2023/04/06 00:30:12;;;;;;;3.45;2.10;;;;;;;9.77;84.20;100606.09;5029653;28;20038;-46
2023/04/06 00:32:39;;;;;;;9.52;3.40;;;;;;;9.69;84.21;100603.44;5029130;28;20139;-46
2023/04/06 00:35:06;;;;;;;12.98;3.45;;;;;;;9.62;84.34;100605.97;5011428;28;20041;-45
2023/04/06 00:37:33;;;;;;;6.32;1.77;;;;;;;9.54;84.21;100601.34;5029353;28;20092;-45
2023/04/06 00:40:00;;;;;;;5.90;1.75;;;;;;;9.47;84.30;100593.63;5029406;28;20513;-45
2023/04/06 00:42:27;;;;;;;5.03;2.58;;;;;;;9.47;84.33;100590.88;5029463;28;20052;-46
2023/04/06 00:44:54;;;;;;;6.55;2.33;;;;;;;9.43;84.23;100598.19;5029159;28;20064;-45
2023/04/06 00:47:22;;;;;;;11.95;2.15;;;;;;;9.42;84.26;100591.09;5029054;28;20080;-45
2023/04/06 00:49:48;;;;;;;11.05;2.70;;;;;;;9.44;84.24;100590.72;5029089;28;20040;-45
2023/04/06 00:52:15;;;;;;;9.30;1.70;;;;;;;9.45;84.18;100606.16;5028674;28;20125;-46
2023/04/06 00:54:42;;;;;;;4.20;2.05;;;;;;;9.44;84.25;100604.53;5029004;28;20068;-45
2023/04/06 00:57:11;;;;;;;8.93;3.58;;;;;;;9.43;84.20;100614.78;5010239;28;20471;-45
2023/04/06 00:59:38;;;;;;;7.35;2.53;;;;;;;9.44;84.28;100616.41;5029865;28;20430;-47
2023/04/06 01:02:05;;;;;;;6.10;2.35;;;;;;;9.41;84.20;100605.22;5028471;28;20053;-46
2023/04/06 01:04:32;;;;;;;7.47;2.33;;;;;;;9.35;84.29;100612.09;5028645;28;20045;-45
2023/04/06 01:06:59;;;;;;;9.77;2.30;;;;;;;9.33;84.37;100608.88;5028246;28;20045;-44
2023/04/06 01:09:29;;;;;;;6.45;2.60;;;;;;;9.29;84.22;100603.25;5028748;28;20072;-46
2023/04/06 01:11:57;;;;;;;8.20;1.88;;;;;;;9.25;84.19;100607.00;5028548;28;20056;-45
2023/04/06 01:14:25;;;;;;;8.02;1.80;;;;;;;9.26;84.33;100605.88;5027703;28;20385;-46
2023/04/06 01:16:52;;;;;;;6.35;2.13;;;;;;;9.24;84.31;100605.41;5028866;28;20128;-47
2023/04/06 01:19:20;;;;;;;7.18;2.92;;;;;;;9.25;84.32;100615.28;5028839;28;20436;-45
2023/04/06 01:21:49;;;;;;;16.13;3.58;;;;;;;9.27;84.25;100627.63;5028742;28;20052;-47
2023/04/06 01:24:16;;;;;;;9.88;1.98;;;;;;;9.29;84.38;100614.28;5028554;28;20037;-45
2023/04/06 01:26:44;;;;;;;8.82;2.03;;;;;;;9.34;84.39;100611.31;5027428;28;20088;-51
2023/04/06 01:29:11;;;;;;;8.50;1.80;;;;;;;9.32;84.26;100613.59;5028726;28;20455;-48
2023/04/06 01:31:38;;;;;;;10.02;2.55;;;;;;;9.27;84.19;100610.22;5028398;28;20144;-45
2023/04/06 01:34:05;;;;;;;11.85;4.32;;;;;;;9.26;84.27;100606.69;5028262;28;20402;-49
2023/04/06 01:36:32;;;;;;;5.97;1.98;;;;;;;9.28;84.22;100603.56;5015457;28;20038;-48
2023/04/06 01:38:59;;;;;;;7.90;3.13;;;;;;;9.26;84.15;100601.16;4991207;28;20045;-46
2023/04/06 01:41:26;;;;;;;4.57;2.20;;;;;;;9.26;84.18;100600.34;5028489;28;20463;-45
2023/04/06 01:43:54;;;;;;;6.72;1.90;;;;;;;9.26;84.26;100597.56;5028240;28;20037;-45
2023/04/06 01:46:21;;;;;;;6.97;2.22;;;;;;;9.28;84.16;100592.50;5028421;28;20042;-45
2023/04/06 01:48:48;;;;;;;11.23;2.47;;;;;;;9.26;84.01;100600.34;5028041;28;20053;-46
2023/04/06 01:51:15;;;;;;;6.60;1.98;;;;;;;9.23;84.01;100598.25;5028946;28;20033;-45
2023/04/06 01:53:42;;;;;;;11.75;3.08;;;;;;;9.22;83.96;100588.34;5010340;28;20050;-45
2023/04/06 01:56:09;;;;;;;8.10;1.80;;;;;;;9.20;83.98;100594.22;5028402;28;20041;-45
2023/04/06 01:58:36;;;;;;;15.60;3.90;;;;;;;9.15;83.95;100591.66;5027453;28;20049;-45
2023/04/06 02:01:02;;;;;;;4.85;1.55;;;;;;;9.09;83.73;100596.59;5028524;28;20041;-48
2023/04/06 02:03:30;;;;;;;8.30;1.80;;;;;;;9.01;83.86;100591.94;5030577;28;20041;-47
2023/04/06 02:05:57;;;;;;;8.70;2.10;;;;;;;8.99;83.85;100593.44;5030445;28;20041;-45
2023/04/06 02:08:24;;;;;;;7.05;1.63;;;;;;;9.00;83.96;100589.53;5032290;28;20045;-46
2023/04/06 02:10:50;;;;;;;8.20;1.80;;;;;;;9.02;83.96;100599.09;4994596;28;20063;-45
2023/04/06 02:13:17;;;;;;;7.82;2.67;;;;;;;9.04;84.00;100596.00;5027053;28;20169;-46
2023/04/06 02:15:44;;;;;;;8.98;2.80;;;;;;;9.05;83.85;100592.88;5031823;28;20051;-45
2023/04/06 02:18:10;;;;;;;9.60;2.85;;;;;;;9.09;83.98;100593.00;5031707;28;20045;-52
2023/04/06 02:20:37;;;;;;;7.88;2.33;;;;;;;9.08;84.05;100581.16;5031721;28;20041;-46
2023/04/06 02:23:04;;;;;;;6.40;2.25;;;;;;;9.09;83.88;100584.72;5031885;28;20052;-45
2023/04/06 02:25:30;;;;;;;14.52;3.38;;;;;;;9.07;83.92;100579.56;5031901;28;20053;-45
2023/04/06 02:27:57;;;;;;;7.43;2.10;;;;;;;9.08;84.02;100583.13;5031594;28;20161;-45
2023/04/06 02:30:24;;;;;;;9.25;2.88;;;;;;;9.03;83.89;100589.66;5031687;28;20046;-45
2023/04/06 02:32:51;;;;;;;6.70;2.03;;;;;;;8.98;83.96;100587.09;5031514;28;20056;-53
2023/04/06 02:35:18;;;;;;;9.35;2.95;;;;;;;8.99;84.12;100591.50;5032259;28;20069;-45
2023/04/06 02:37:44;;;;;;;7.70;2.20;;;;;;;8.93;84.07;100583.75;5031580;28;20556;-45
2023/04/06 02:40:11;;;;;;;8.13;2.25;;;;;;;8.90;84.09;100584.41;5031857;28;20060;-44
2023/04/06 02:42:38;;;;;;;12.43;2.63;;;;;;;8.89;84.03;100594.66;5031760;28;21282;-50
2023/04/06 02:45:05;;;;;;;7.70;2.50;;;;;;;8.88;84.30;100595.00;5030843;28;20061;-46
2023/04/06 02:47:33;;;;;;;7.30;2.10;;;;;;;8.86;84.23;100592.56;5031632;28;20060;-45
2023/04/06 02:49:59;;;;;;;9.68;3.35;;;;;;;8.87;84.24;100583.13;5031298;28;20455;-48
2023/04/06 02:52:26;;;;;;;14.68;2.83;;;;;;;8.92;84.51;100574.63;5031168;28;20391;-46
2023/04/06 02:54:53;;;;;;;7.63;2.25;;;;;;;8.92;84.29;100588.44;5031072;28;20148;-45
2023/04/06 02:57:19;;;;;;;11.88;4.07;;;;;;;8.96;84.39;100586.63;5031280;28;20052;-51
2023/04/06 02:59:46;;;;;;;6.75;2.78;;;;;;;9.00;84.40;100590.31;5031406;28;20088;-47
2023/04/06 03:02:13;;;;;;;11.43;4.15;;;;;;;9.03;84.37;100600.69;5099745;23;20152;-45
2023/04/06 03:04:40;;;;;;;5.45;2.63;;;;;;;9.03;84.68;100592.41;5031007;28;20064;-46
2023/04/06 03:07:06;;;;;;;13.98;2.67;;;;;;;9.04;84.26;100591.28;5030866;28;20052;-46
2023/04/06 03:09:34;;;;;;;13.70;4.32;;;;;;;9.02;84.27;100593.56;5031000;28;20049;-46
2023/04/06 03:12:01;;;;;;;17.92;5.57;;;;;;;8.99;84.23;100591.50;5030666;28;20065;-46
2023/04/06 03:14:28;;;;;;;13.30;3.67;;;;;;;8.99;84.32;100590.69;5026156;28;20053;-48
2023/04/06 03:16:54;;;;;;;11.05;3.25;;;;;;;8.97;84.41;100591.03;5043461;28;20061;-53
2023/04/06 03:19:21;;;;;;;7.85;2.17;;;;;;;8.97;84.40;100590.22;5030715;28;20046;-48
2023/04/06 03:21:48;;;;;;;12.80;3.38;;;;;;;8.90;84.22;100600.97;5030570;28;20398;-45
2023/04/06 03:24:15;;;;;;;12.77;3.00;;;;;;;8.85;84.36;100585.44;5030041;28;20483;-45
2023/04/06 03:26:42;;;;;;;39.95;5.93;;;;;;;8.85;84.50;100592.91;5030592;28;20056;-45
2023/04/06 03:29:09;;;;;;;7.13;2.53;;;;;;;8.83;84.50;100590.50;5030455;28;20068;-45
2023/04/06 03:31:36;;;;;;;13.52;4.30;;;;;;;8.82;84.35;100586.09;5030103;28;20470;-47
2023/04/06 03:34:03;;;;;;;8.43;3.03;;;;;;;8.79;84.36;100591.50;5036632;28;20041;-45
2023/04/06 03:36:30;;;;;;;11.05;2.80;;;;;;;8.77;84.38;100591.81;5030253;28;20886;-48
2023/04/06 03:38:56;;;;;;;9.63;2.90;;;;;;;8.72;84.38;100588.47;5030451;28;20049;-47
2023/04/06 03:41:23;;;;;;;10.18;3.15;;;;;;;8.68;84.49;100593.88;5030152;28;20065;-47
2023/04/06 03:43:51;;;;;;;5.03;2.28;;;;;;;8.65;84.48;100589.00;5028773;28;20408;-47
2023/04/06 03:46:18;;;;;;;11.80;2.30;;;;;;;8.66;84.47;100596.13;5017301;28;20046;-45
2023/04/06 03:48:47;;;;;;;17.00;2.40;;;;;;;8.62;84.49;100588.88;5030785;28;20068;-46
2023/04/06 03:51:14;;;;;;;10.93;2.42;;;;;;;8.57;84.46;100587.13;5029980;28;20048;-45
2023/04/06 03:53:41;;;;;;;19.58;3.33;;;;;;;8.54;84.72;100590.53;5030588;28;20595;-51
2023/04/06 03:56:08;;;;;;;6.25;3.15;;;;;;;8.50;84.64;100593.16;5030448;28;20045;-47
2023/04/06 03:58:34;;;;;;;13.40;2.45;;;;;;;8.47;84.89;100593.03;5030317;28;20041;-45
2023/04/06 04:01:13;;;;;;;7.47;2.22;;;;;;;8.46;84.90;100596.94;5030241;28;20132;-48
2023/04/06 04:03:39;;;;;;;8.23;2.00;;;;;;;8.44;85.06;100593.69;5012177;28;20434;-50
2023/04/06 04:06:06;;;;;;;9.65;2.35;;;;;;;8.39;84.93;100602.19;5030949;28;20049;-45
2023/04/06 04:08:33;;;;;;;11.52;2.30;;;;;;;8.41;85.19;100605.41;5029987;28;20066;-47
2023/04/06 04:11:00;;;;;;;7.07;2.40;;;;;;;8.39;85.10;100597.44;5029852;28;20124;-46
2023/04/06 04:13:27;;;;;;;12.38;3.22;;;;;;;8.34;85.30;100600.41;5029375;28;20053;-47
2023/04/06 04:15:53;;;;;;;11.68;2.35;;;;;;;8.33;85.25;100597.97;5029677;28;20053;-45
2023/04/06 04:18:20;;;;;;;9.32;2.42;;;;;;;8.32;85.30;100601.88;5012093;28;20051;-45
2023/04/06 04:20:47;;;;;;;7.85;2.75;;;;;;;8.34;85.96;100594.09;5029517;28;20057;-46
2023/04/06 04:23:13;;;;;;;11.35;2.80;;;;;;;8.28;85.43;100604.50;5030199;28;20753;-47
2023/04/06 04:25:40;;;;;;;14.75;2.25;;;;;;;8.24;85.61;100597.19;5029082;28;20053;-44
2023/04/06 04:28:07;;;;;;;11.32;2.50;;;;;;;8.22;85.63;100593.97;5029552;28;20033;-44
2023/04/06 04:30:34;;;;;;;9.30;2.35;;;;;;;8.19;85.86;100598.19;5029585;28;20471;-45
2023/04/06 04:33:00;;;;;;;8.48;2.10;;;;;;;8.19;86.08;100600.13;5029308;28;20503;-45
2023/04/06 04:35:27;;;;;;;10.38;1.92;;;;;;;8.20;86.14;100590.72;5029008;28;20052;-46
2023/04/06 04:37:54;;;;;;;6.40;2.35;;;;;;;8.20;86.07;100590.72;5029310;28;20106;-45
2023/04/06 04:40:21;;;;;;;5.45;1.90;;;;;;;8.20;86.46;100601.75;5029684;28;20067;-45
2023/04/06 04:42:50;;;;;;;8.75;3.38;;;;;;;8.19;86.47;100605.66;5025224;28;20041;-44
2023/04/06 04:45:17;;;;;;;10.27;1.92;;;;;;;8.19;86.48;100609.22;5029250;28;20045;-48
2023/04/06 04:47:44;;;;;;;6.93;2.60;;;;;;;8.18;86.68;100615.88;5029465;28;20052;-45
2023/04/06 04:50:11;;;;;;;10.00;2.10;;;;;;;8.17;86.70;100613.47;5027949;28;20049;-45
2023/04/06 04:52:38;;;;;;;10.18;2.33;;;;;;;8.17;86.60;100611.50;5029032;28;20049;-44
2023/04/06 04:55:05;;;;;;;9.25;3.00;;;;;;;8.19;86.59;100616.69;5029245;28;20412;-45
2023/04/06 04:57:31;;;;;;;8.52;1.75;;;;;;;8.18;86.68;100615.88;5029419;28;20477;-47
2023/04/06 04:59:58;;;;;;;7.10;2.05;;;;;;;8.19;86.60;100624.94;5028757;28;20550;-45
2023/04/06 05:02:25;;;;;;;9.82;2.78;;;;;;;8.17;86.52;100622.53;5028652;28;20148;-46
2023/04/06 05:04:52;;;;;;;6.80;2.00;;;;;;;8.17;86.51;100621.72;5029064;28;20467;-49
2023/04/06 05:07:20;;;;;;;8.48;1.90;;;;;;;8.23;86.43;100620.41;5015793;28;20076;-45
2023/04/06 05:09:47;;;;;;;11.75;2.30;;;;;;;8.23;86.46;100620.41;5028118;28;20510;-44
2023/04/06 05:12:14;;;;;;;7.88;1.50;;;;;;;8.21;86.49;100619.91;5022209;28;20041;-45
2023/04/06 05:14:41;;;;;;;9.57;2.85;;;;;;;8.16;86.46;100615.41;5022835;28;20136;-47
2023/04/06 05:17:08;;;;;;;7.53;2.10;;;;;;;8.14;86.32;100622.38;5028854;28;20037;-44
2023/04/06 05:19:35;;;;;;;13.68;2.47;;;;;;;8.12;86.39;100633.75;5028450;28;20042;-44
2023/04/06 05:22:02;;;;;;;7.00;1.98;;;;;;;8.07;86.38;100641.41;5028416;28;20041;-44
2023/04/06 05:24:28;;;;;;;7.90;2.85;;;;;;;8.01;86.44;100637.19;5028481;28;20041;-44
2023/04/06 05:26:55;;;;;;;12.80;4.78;;;;;;;7.98;86.72;100635.91;5028411;28;20048;-44
2023/04/06 05:29:22;;;;;;;8.80;2.88;;;;;;;7.98;86.66;100639.50;5028710;28;20045;-46
2023/04/06 05:31:50;;;;;;;7.50;2.58;;;;;;;7.97;86.91;100635.09;5029284;28;20434;-45
2023/04/06 05:34:17;;;;;;;7.20;2.22;;;;;;;7.95;86.76;100645.66;5028476;28;20597;-44
2023/04/06 05:36:43;;;;;;;8.18;2.45;;;;;;;7.95;87.05;100642.09;5028199;28;20050;-45
2023/04/06 05:39:12;;;;;;;8.75;2.92;;;;;;;7.96;87.17;100649.22;5032505;28;20140;-44
2023/04/06 05:41:39;;;;;;;8.75;2.20;;;;;;;7.92;87.16;100646.31;5032451;28;20081;-53
2023/04/06 05:44:05;;;;;;;6.78;2.45;;;;;;;7.92;87.12;100648.25;5031364;28;20132;-46
2023/04/06 05:46:32;;;;;;;14.77;2.50;;;;;;;7.95;87.32;100651.19;5032496;28;20491;-44
2023/04/06 05:48:59;;;;;;;9.20;2.10;;;;;;;8.00;87.36;100650.19;5033067;28;21493;-44
2023/04/06 05:51:27;;;;;;;5.07;2.30;;;;;;;7.99;87.57;100643.06;5032379;28;20120;-49
2023/04/06 05:53:54;;;;;;;15.57;2.63;;;;;;;8.02;87.53;100647.09;5032284;28;20049;-44
2023/04/06 05:56:20;;;;;;;11.00;2.67;;;;;;;8.04;87.70;100656.66;5032126;28;20144;-49
2023/04/06 05:58:47;;;;;;;12.50;2.95;;;;;;;8.04;88.01;100662.19;5032175;28;20052;-44
2023/04/06 06:01:15;;;;;;;7.28;2.10;;;;;;;8.05;87.96;100661.00;5031632;28;20114;-44
2023/04/06 06:03:41;;;;;;;9.68;2.40;;;;;;;8.08;88.29;100663.13;5032143;28;20065;-45
2023/04/06 06:06:08;;;;;;;9.02;2.58;;;;;;;8.09;88.34;100674.97;5032277;28;20049;-44
2023/04/06 06:08:35;;;;;;;10.15;3.85;;;;;;;8.10;88.51;100668.31;5032084;28;20049;-48
2023/04/06 06:11:02;;;;;;;12.43;2.30;;;;;;;8.11;88.67;100664.41;5032292;28;20048;-44
2023/04/06 06:13:28;;;;;;;8.13;2.70;;;;;;;8.09;88.77;100670.25;5031539;28;20041;-45
2023/04/06 06:15:55;;;;;;;15.45;4.35;;;;;;;8.09;88.86;100680.47;5026878;28;20132;-51
2023/04/06 06:18:22;;;;;;;20.52;4.13;;;;;;;8.08;89.05;100676.91;5029548;28;20144;-45
2023/04/06 06:20:49;;;;;;;14.50;3.35;;;;;;;8.07;89.29;100677.25;5032208;28;20069;-44
2023/04/06 06:23:16;;;;;;;11.02;2.60;;;;;;;8.07;89.35;100682.75;5032096;28;20047;-44
2023/04/06 06:25:42;;;;;;;7.38;2.88;;;;;;;8.04;89.50;100684.22;5031538;28;20050;-44
2023/04/06 06:28:09;;;;;;;6.53;2.65;;;;;;;8.03;89.56;100687.31;5031811;28;20046;-44
2023/04/06 06:30:36;;;;;;;9.35;2.97;;;;;;;8.04;89.82;100687.00;5014251;28;20046;-46
2023/04/06 06:33:03;;;;;;;10.38;2.63;;;;;;;8.03;89.82;100692.81;5031139;28;20046;-47
2023/04/06 06:35:30;;;;;;;7.35;3.22;;;;;;;8.06;90.15;100690.22;5031465;28;20051;-52
2023/04/06 06:37:56;;;;;;;12.20;3.25;;;;;;;8.06;90.01;100697.69;5031503;28;20235;-48
2023/04/06 06:40:23;;;;;;;6.13;2.40;;;;;;;8.01;90.14;100695.09;5032023;28;20060;-44
2023/04/06 06:42:51;;;;;;;9.70;2.60;;;;;;;8.02;90.33;100703.06;5030868;28;20497;-47
2023/04/06 06:45:18;;;;;;;6.95;2.38;;;;;;;8.01;90.47;100706.94;5031554;28;20432;-45
2023/04/06 06:47:46;;;;;;;13.13;2.95;;;;;;;8.02;90.31;100699.50;5031471;28;20053;-44
2023/04/06 06:50:13;;;;;;;8.63;2.28;;;;;;;8.04;90.71;100699.97;5031604;28;20057;-45
2023/04/06 06:52:41;;;;;;;6.60;1.88;;;;;;;8.02;90.77;100694.78;5031470;28;20117;-46
2023/04/06 06:55:10;;;;;;;8.73;2.08;;;;;;;8.05;90.73;100704.34;5031458;28;20522;-47
2023/04/06 06:57:38;;;;;;;7.72;2.10;;;;;;;8.06;90.81;100704.00;5031950;28;20049;-46
2023/04/06 07:00:07;;;;;;;5.78;2.05;;;;;;;8.08;90.85;100703.66;5031502;28;20045;-46
2023/04/06 07:02:35;;;;;;;6.90;1.63;;;;;;;8.05;90.81;100707.88;5031180;28;20088;-46
2023/04/06 07:05:02;;;;;;;8.40;1.63;;;;;;;8.07;91.01;100710.34;5031640;28;20049;-44
2023/04/06 07:07:41;;;;;;;6.18;1.98;;;;;;;8.10;91.10;100713.22;5031344;28;20100;-45
2023/04/06 07:10:09;;;;;;;5.10;1.95;;;;;;;8.07;91.00;100715.84;5030876;28;20056;-45
2023/04/06 07:12:35;;;;;;;7.68;1.67;;;;;;;8.09;91.16;100713.56;5013525;28;20056;-47
2023/04/06 07:15:02;;;;;;;5.57;1.35;;;;;;;8.09;91.27;100713.56;5012933;28;20044;-46
2023/04/06 07:17:30;;;;;;;5.25;1.55;;;;;;;8.17;91.36;100721.00;5031127;28;20065;-45
2023/04/06 07:19:57;;;;;;;7.72;2.55;;;;;;;8.22;91.27;100723.56;5030320;28;20033;-46
2023/04/06 07:22:24;;;;;;;7.53;1.55;;;;;;;8.27;91.32;100723.41;5030903;28;20099;-47
2023/04/06 07:24:51;;;;;;;3.70;1.40;;;;;;;8.26;91.33;100725.34;5010221;28;20495;-46
2023/04/06 07:27:18;;;;;;;4.82;1.80;;;;;;;8.29;91.24;100723.91;5015154;28;20053;-47
2023/04/06 07:29:45;;;;;;;8.45;2.63;;;;;;;8.28;91.36;100733.31;5018870;28;20587;-47
2023/04/06 07:32:12;;;;;;;5.97;2.03;;;;;;;8.25;91.45;100728.44;5029133;28;20104;-47
2023/04/06 07:34:39;;;;;;;7.55;2.17;;;;;;;8.28;91.76;100733.31;5028058;28;20044;-46
2023/04/06 07:37:06;;;;;;;9.85;2.55;;;;;;;8.29;91.91;100740.44;5030386;28;20200;-48
2023/04/06 07:39:34;;;;;;;5.40;1.88;;;;;;;8.33;91.92;100746.94;5030941;28;20430;-46
2023/04/06 07:42:01;;;;;;;5.30;1.92;;;;;;;8.39;91.70;100740.09;5029553;28;20088;-45
2023/04/06 07:44:28;;;;;;;5.55;1.40;;;;;;;8.45;92.13;100744.28;5030133;28;20403;-45
2023/04/06 07:46:54;;;;;;;4.38;1.83;;;;;;;8.53;92.12;100752.53;5030503;28;20084;-51
2023/04/06 07:49:22;;;;;;;8.13;1.70;;;;;;;8.53;91.99;100744.25;5029663;28;20049;-47
2023/04/06 07:51:49;;;;;;;2.85;1.30;;;;;;;8.55;92.05;100744.72;5029613;28;20041;-45
2023/04/06 07:54:16;;;;;;;3.42;1.30;;;;;;;8.55;92.19;100744.72;5029845;28;20041;-47
2023/04/06 07:56:42;;;;;;;6.75;1.88;;;;;;;8.51;92.29;100748.47;5029086;28;20487;-46
2023/04/06 07:59:11;;;;;;;4.30;1.65;;;;;;;8.49;92.37;100742.50;5029990;28;20049;-46
2023/04/06 08:01:38;;;;;;;6.10;1.77;;;;;;;8.51;92.52;100743.78;5023801;28;20107;-45
2023/04/06 08:04:05;;;;;;;5.68;1.88;;;;;;;8.67;92.70;100752.31;5026405;28;20045;-45
2023/04/06 08:06:32;;;;;;;5.60;2.25;;;;;;;8.84;92.61;100751.41;5028654;28;20072;-47
2023/04/06 08:08:58;;;;;;;4.28;1.50;;;;;;;8.94;92.43;100754.59;5029767;28;20052;-46
2023/04/06 08:11:26;;;;;;;8.90;1.73;;;;;;;8.96;92.23;100755.06;5028347;28;20053;-50
2023/04/06 08:13:55;;;;;;;10.98;3.33;;;;;;;8.99;92.43;100759.94;5029406;28;20072;-46
2023/04/06 08:16:22;;;;;;;4.43;1.63;;;;;;;9.01;92.56;100759.59;5029321;28;20077;-52
2023/04/06 08:18:49;;;;;;;9.65;1.85;;;;;;;9.03;92.50;100763.63;5023557;28;20494;-49
2023/04/06 08:21:16;;;;;;;2.08;1.13;;;;;;;9.02;92.44;100763.97;5029834;28;20139;-45
2023/04/06 08:23:43;;;;;;;5.65;1.40;;;;;;;9.03;92.36;100771.91;5029746;28;20084;-52
2023/04/06 08:26:09;;;;;;;4.63;1.35;;;;;;;9.15;92.33;100768.44;5029230;28;20084;-46
2023/04/06 08:28:36;;;;;;;3.83;1.25;;;;;;;9.26;92.35;100772.44;5029389;28;20048;-45
2023/04/06 08:31:06;;;;;;;5.25;1.38;;;;;;;9.34;91.86;100773.50;5029013;28;20410;-47
2023/04/06 08:33:38;;;;;;;2.90;0.90;;;;;;;9.34;91.78;100779.84;5029709;28;20041;-47
2023/04/06 08:36:09;;;;;;;;;;;;;;;9.38;91.94;100782.72;5029502;28;20475;-46
2023/04/06 08:38:37;;;;;;;5.03;1.70;;;;;;;9.50;92.03;100785.59;5029428;28;20333;-49
2023/04/06 08:41:11;;;;;;;9.95;1.60;;;;;;;9.62;91.73;100774.56;5042264;28;20140;-47
2023/04/06 08:43:47;;;;;;;4.65;1.63;;;;;;;9.74;91.66;100780.97;5041026;28;20047;-46
2023/04/06 08:46:15;;;;;;;3.80;1.92;;;;;;;9.84;91.64;100792.78;5016130;28;20479;-49
2023/04/06 08:48:42;;;;;;;4.40;1.35;;;;;;;9.87;91.32;100787.38;5028748;28;20045;-47
2023/04/06 08:51:10;;;;;;;6.95;1.73;;;;;;;10.05;91.85;100796.31;5028816;28;20044;-45
2023/04/06 08:53:37;;;;;;;5.63;1.85;;;;;;;10.29;91.84;100801.97;5028747;28;20073;-53
2023/04/06 08:56:05;;;;;;;8.43;1.88;;;;;;;10.47;91.57;100797.03;5029423;28;20045;-47
2023/04/06 08:58:37;;;;;;;3.83;1.67;;;;;;;10.55;91.04;100798.88;5028939;28;20664;-47
2023/04/06 09:01:09;;;;;;;4.55;1.80;;;;;;;10.53;90.70;100806.75;5028743;28;20507;-45
2023/04/06 09:03:40;;;;;;;2.70;1.10;;;;;;;10.47;90.49;100802.56;5028526;28;20124;-45
2023/04/06 09:06:08;;;;;;;9.20;1.83;;;;;;;10.49;90.19;100816.88;5028730;28;20054;-45
2023/04/06 09:08:38;;;;;;;4.43;1.13;;;;;;;10.73;90.10;100817.72;5028236;28;20557;-47
2023/04/06 09:11:04;;;;;;;5.13;1.17;;;;;;;10.85;89.18;100822.47;5028699;28;20128;-46
2023/04/06 09:13:31;;;;;;;7.90;1.63;;;;;;;10.85;88.53;100819.72;5028188;28;20495;-46
2023/04/06 09:16:02;;;;;;;5.50;2.33;;;;;;;10.75;88.21;100820.94;5010946;28;20064;-45
2023/04/06 09:18:31;;;;;;;6.57;2.30;;;;;;;10.71;88.10;100831.13;5023286;28;20041;-45
2023/04/06 09:21:03;;;;;;;5.90;1.70;;;;;;;10.78;87.77;100825.00;5028514;28;20489;-45
2023/04/06 09:23:30;;;;;;;5.43;1.80;;;;;;;11.06;87.71;100837.03;5028173;28;20136;-47
2023/04/06 09:26:06;;;;;;;4.30;1.42;;;;;;;11.52;86.63;100838.47;5028865;28;20038;-46
2023/04/06 09:28:54;;;;;;;3.72;1.42;;;;;;;11.58;85.35;100854.53;5014422;28;20080;-49
2023/04/06 09:31:26;;;;;;;5.43;1.70;;;;;;;11.57;84.87;100852.09;5025915;28;20041;-49
2023/04/06 09:33:53;;;;;;;6.20;1.58;;;;;;;11.60;85.18;100852.22;5010760;28;20092;-48
2023/04/06 09:36:33;;;;;;;6.00;1.50;;;;;;;11.73;84.69;100866.09;5027888;28;20049;-46
2023/04/06 09:39:02;;;;;;;6.88;1.70;;;;;;;11.75;84.06;100859.06;5028251;28;20049;-53
2023/04/06 09:41:34;;;;;;;8.20;1.92;;;;;;;11.94;84.09;100866.75;5028425;28;20050;-46
2023/04/06 09:44:03;;;;;;;5.70;2.08;;;;;;;12.67;82.71;100862.47;5010740;28;20388;-46
2023/04/06 09:46:40;;;;;;;13.85;3.92;;;;;;;12.75;80.68;100863.47;5036035;28;20045;-46
2023/04/06 09:49:31;;;;;;;3.55;1.35;;;;;;;12.35;80.67;100871.09;5028557;28;20056;-44
2023/04/06 09:52:07;;;;;;;5.45;1.77;;;;;;;11.90;80.95;100885.25;5028439;28;20038;-47
2023/04/06 09:54:35;;;;;;;4.65;1.60;;;;;;;11.52;80.77;100877.28;5028238;28;20060;-46
2023/04/06 09:57:30;;;;;;;2.97;1.38;;;;;;;11.30;81.25;100880.56;5028502;28;20042;-45
2023/04/06 10:00:12;;;;;;;11.75;1.95;;;;;;;12.50;80.31;100868.34;5028246;28;20081;-47
2023/04/06 10:03:07;;;;;;;5.95;2.55;;;;;;;12.79;77.69;100879.06;5017229;28;20491;-49
2023/04/06 10:05:55;;;;;;;2.88;1.00;;;;;;;12.25;76.52;100877.16;5028291;28;20144;-47
2023/04/06 10:08:25;;;;;;;8.10;1.80;;;;;;;11.58;76.50;100882.28;5028838;28;20041;-48
2023/04/06 10:10:52;;;;;;;9.77;2.00;;;;;;;11.40;77.88;100883.69;5028237;28;20049;-46
2023/04/06 10:13:19;;;;;;;2.70;1.02;;;;;;;12.72;76.59;100883.63;5028167;28;20053;-53
2023/04/06 10:15:46;;;;;;;7.25;1.15;;;;;;;14.27;72.57;100889.34;5028553;28;20045;-45
2023/04/06 10:18:14;;;;;;;8.50;1.50;;;;;;;15.47;69.54;100886.81;5027229;28;20064;-46
2023/04/06 10:20:53;;;;;;;2.08;0.82;;;;;;;16.61;67.34;100892.78;5020213;28;20052;-46
2023/04/06 10:23:29;;;;;;;8.20;1.63;;;;;;;16.92;65.44;100899.91;5027381;28;20064;-45
2023/04/06 10:25:58;;;;;;;3.78;1.70;;;;;;;15.96;64.89;100902.72;5031718;28;20053;-45
2023/04/06 10:28:26;;;;;;;5.30;0.93;;;;;;;14.78;65.88;100899.13;5031501;28;20061;-50
2023/04/06 10:31:00;;;;;;;3.80;1.27;;;;;;;13.99;67.65;100904.28;5029362;28;20041;-49
2023/04/06 10:33:27;;;;;;;4.22;1.17;;;;;;;14.73;66.83;100904.22;5031452;28;20059;-48
2023/04/06 10:35:57;;;;;;;2.33;0.90;;;;;;;15.76;63.52;100915.97;5031138;28;20487;-49
2023/04/06 10:38:35;;;;;;;4.63;0.90;;;;;;;16.55;61.67;100907.50;5014742;28;20049;-49
2023/04/06 10:41:11;;;;;;;7.90;1.00;;;;;;;16.14;60.88;100915.75;5014366;28;20045;-48
2023/04/06 10:43:39;;;;;;;;;;;;;;;15.12;62.80;100914.91;5031758;28;20499;-47
2023/04/06 10:46:07;;;;;;;4.18;1.75;;;;;;;14.39;63.45;100914.28;5031661;28;19921;-48
2023/04/06 10:48:41;;;;;;;5.45;1.17;;;;;;;14.08;64.46;100914.41;5027706;28;20041;-48
2023/04/06 10:51:14;;;;;;;3.90;1.17;;;;;;;14.74;62.50;100919.75;5012984;28;20046;-47
2023/04/06 10:53:46;;;;;;;8.07;1.00;;;;;;;14.56;61.67;100919.44;5031633;28;20056;-46
2023/04/06 10:56:15;;;;;;;10.43;1.58;;;;;;;13.81;62.41;100914.19;5031028;28;20052;-54
2023/04/06 10:58:49;;;;;;;5.95;2.00;;;;;;;13.43;63.97;100911.28;5030873;28;20049;-46
2023/04/06 11:01:17;;;;;;;3.33;1.30;;;;;;;13.49;63.89;100920.97;5031174;28;20060;-46
2023/04/06 11:03:46;;;;;;;5.28;1.10;;;;;;;13.41;63.46;100911.66;5031220;28;20048;-45
2023/04/06 11:06:23;;;;;;;2.50;0.98;;;;;;;13.06;63.88;100926.59;5030904;28;20077;-48
2023/04/06 11:08:51;;;;;;;5.60;1.20;;;;;;;12.66;64.00;100921.16;5030753;28;20416;-45
2023/04/06 11:11:20;;;;;;;3.92;1.27;;;;;;;12.31;64.51;100918.19;5031812;28;20054;-46
2023/04/06 11:13:51;;;;;;;3.63;0.70;;;;;;;12.42;65.10;100930.41;5013279;28;20087;-51
2023/04/06 11:16:20;;;;;;;4.13;1.00;;;;;;;12.61;64.71;100930.56;5030245;28;20042;-49
2023/04/06 11:18:53;;;;;;;7.10;1.05;;;;;;;12.68;64.31;100922.41;5019152;28;20072;-48
2023/04/06 11:21:30;;;;;;;4.47;0.80;;;;;;;12.73;64.11;100922.16;5030424;28;20415;-48
2023/04/06 11:24:06;;;;;;;4.22;0.90;;;;;;;12.63;63.91;100936.56;5030392;28;20076;-46
2023/04/06 11:26:38;;;;;;;9.23;0.80;;;;;;;12.36;63.75;100931.84;5030303;28;20048;-46
2023/04/06 11:29:06;;;;;;;3.30;0.80;;;;;;;12.13;63.82;100936.28;5031076;28;20056;-49
2023/04/06 11:31:45;;;;;;;5.43;0.80;;;;;;;12.21;64.34;100930.59;5030636;28;20037;-48
2023/04/06 11:34:16;;;;;;;3.45;1.13;;;;;;;12.27;64.45;100941.44;5030465;28;20043;-47